sensor_id;sensor_type;location;lat;lon;timestamp;P1;durP1;ratioP1;P2;durP2;ratioP2
12921;SDS011;6528;48.086;16.282;2022-07-10T00:00:09;2.20;;;1.50;;
12921;SDS011;6528;48.086;16.282;2022-07-10T00:02:41;1.53;;;1.53;;
12921;SDS011;6528;48.086;16.282;2022-07-10T00:05:09;2.10;;;2.00;;
12921;SDS011;6528;48.086;16.282;2022-07-10T00:07:45;1.67;;;1.57;;
12921;SDS011;6528;48.086;16.282;2022-07-10T00:10:12;1.60;;;1.50;;
12921;SDS011;6528;48.086;16.282;2022-07-10T00:12:39;1.90;;;1.80;;
12921;SDS011;6528;48.086;16.282;2022-07-10T00:15:06;1.80;;;1.70;;
12921;SDS011;6528;48.086;16.282;2022-07-10T00:17:33;2.00;;;1.90;;
12921;SDS011;6528;48.086;16.282;2022-07-10T00:20:02;2.10;;;2.00;;
12921;SDS011;6528;48.086;16.282;2022-07-10T00:22:29;2.13;;;1.90;;
12921;SDS011;6528;48.086;16.282;2022-07-10T00:24:56;2.30;;;2.20;;
12921;SDS011;6528;48.086;16.282;2022-07-10T00:27:23;2.83;;;2.20;;
12921;SDS011;6528;48.086;16.282;2022-07-10T00:29:50;2.40;;;2.30;;
12921;SDS011;6528;48.086;16.282;2022-07-10T00:32:18;2.00;;;1.87;;
12921;SDS011;6528;48.086;16.282;2022-07-10T00:34:45;2.10;;;1.90;;
12921;SDS011;6528;48.086;16.282;2022-07-10T00:37:11;1.90;;;1.80;;
12921;SDS011;6528;48.086;16.282;2022-07-10T00:39:38;3.00;;;2.10;;
12921;SDS011;6528;48.086;16.282;2022-07-10T00:42:08;2.20;;;2.10;;
12921;SDS011;6528;48.086;16.282;2022-07-10T00:44:38;2.47;;;2.10;;
12921;SDS011;6528;48.086;16.282;2022-07-10T00:47:05;1.83;;;1.73;;
12921;SDS011;6528;48.086;16.282;2022-07-10T00:49:33;1.77;;;1.67;;
12921;SDS011;6528;48.086;16.282;2022-07-10T00:52:02;2.17;;;2.07;;
12921;SDS011;6528;48.086;16.282;2022-07-10T00:54:32;4.83;;;1.90;;
12921;SDS011;6528;48.086;16.282;2022-07-10T00:57:02;2.00;;;1.90;;
12921;SDS011;6528;48.086;16.282;2022-07-10T00:59:31;1.70;;;1.60;;
12921;SDS011;6528;48.086;16.282;2022-07-10T01:01:58;2.10;;;2.00;;
12921;SDS011;6528;48.086;16.282;2022-07-10T01:04:26;1.43;;;1.37;;
12921;SDS011;6528;48.086;16.282;2022-07-10T01:06:52;2.00;;;1.90;;
12921;SDS011;6528;48.086;16.282;2022-07-10T01:09:19;2.10;;;1.70;;
12921;SDS011;6528;48.086;16.282;2022-07-10T01:11:46;2.00;;;1.90;;
12921;SDS011;6528;48.086;16.282;2022-07-10T01:14:14;2.03;;;1.93;;
12921;SDS011;6528;48.086;16.282;2022-07-10T01:16:42;2.00;;;1.90;;
12921;SDS011;6528;48.086;16.282;2022-07-10T01:19:09;2.03;;;1.90;;
12921;SDS011;6528;48.086;16.282;2022-07-10T01:21:36;2.40;;;2.20;;
12921;SDS011;6528;48.086;16.282;2022-07-10T01:24:04;2.80;;;2.20;;
12921;SDS011;6528;48.086;16.282;2022-07-10T01:26:33;3.00;;;1.73;;
12921;SDS011;6528;48.086;16.282;2022-07-10T01:29:02;1.90;;;1.80;;
12921;SDS011;6528;48.086;16.282;2022-07-10T01:31:31;2.47;;;2.27;;
12921;SDS011;6528;48.086;16.282;2022-07-10T01:33:59;2.97;;;1.90;;
12921;SDS011;6528;48.086;16.282;2022-07-10T01:36:29;4.20;;;2.50;;
12921;SDS011;6528;48.086;16.282;2022-07-10T01:38:57;2.37;;;2.17;;
12921;SDS011;6528;48.086;16.282;2022-07-10T01:41:25;2.47;;;2.27;;
12921;SDS011;6528;48.086;16.282;2022-07-10T01:43:52;2.13;;;2.03;;
12921;SDS011;6528;48.086;16.282;2022-07-10T01:46:20;2.40;;;2.30;;
12921;SDS011;6528;48.086;16.282;2022-07-10T01:48:47;2.10;;;2.00;;
12921;SDS011;6528;48.086;16.282;2022-07-10T01:51:14;4.33;;;2.03;;
12921;SDS011;6528;48.086;16.282;2022-07-10T01:53:41;2.10;;;2.00;;
12921;SDS011;6528;48.086;16.282;2022-07-10T01:56:09;1.80;;;1.70;;
12921;SDS011;6528;48.086;16.282;2022-07-10T01:58:37;1.80;;;1.70;;
12921;SDS011;6528;48.086;16.282;2022-07-10T02:01:05;2.20;;;2.00;;
12921;SDS011;6528;48.086;16.282;2022-07-10T02:03:33;2.17;;;2.00;;
12921;SDS011;6528;48.086;16.282;2022-07-10T02:06:19;2.13;;;1.93;;
12921;SDS011;6528;48.086;16.282;2022-07-10T02:08:46;2.30;;;2.20;;
12921;SDS011;6528;48.086;16.282;2022-07-10T02:11:13;1.97;;;1.83;;
12921;SDS011;6528;48.086;16.282;2022-07-10T02:13:40;2.57;;;2.17;;
12921;SDS011;6528;48.086;16.282;2022-07-10T02:16:07;2.47;;;2.27;;
12921;SDS011;6528;48.086;16.282;2022-07-10T02:18:34;1.93;;;1.70;;
12921;SDS011;6528;48.086;16.282;2022-07-10T02:21:02;2.40;;;2.20;;
12921;SDS011;6528;48.086;16.282;2022-07-10T02:23:29;2.33;;;2.20;;
12921;SDS011;6528;48.086;16.282;2022-07-10T02:25:56;2.10;;;2.00;;
12921;SDS011;6528;48.086;16.282;2022-07-10T02:28:22;2.00;;;1.90;;
12921;SDS011;6528;48.086;16.282;2022-07-10T02:30:49;2.60;;;2.40;;
12921;SDS011;6528;48.086;16.282;2022-07-10T02:33:16;2.20;;;1.77;;
12921;SDS011;6528;48.086;16.282;2022-07-10T02:35:43;2.20;;;2.10;;
12921;SDS011;6528;48.086;16.282;2022-07-10T02:38:10;2.73;;;2.00;;
12921;SDS011;6528;48.086;16.282;2022-07-10T02:40:37;2.20;;;2.03;;
12921;SDS011;6528;48.086;16.282;2022-07-10T02:43:03;1.97;;;1.83;;
12921;SDS011;6528;48.086;16.282;2022-07-10T02:45:30;2.43;;;2.23;;
12921;SDS011;6528;48.086;16.282;2022-07-10T02:47:57;2.23;;;2.13;;
12921;SDS011;6528;48.086;16.282;2022-07-10T02:50:24;2.60;;;2.03;;
12921;SDS011;6528;48.086;16.282;2022-07-10T02:52:51;2.53;;;2.30;;
12921;SDS011;6528;48.086;16.282;2022-07-10T02:55:18;2.90;;;1.83;;
12921;SDS011;6528;48.086;16.282;2022-07-10T02:57:44;2.20;;;2.10;;
12921;SDS011;6528;48.086;16.282;2022-07-10T03:00:11;2.20;;;2.10;;
12921;SDS011;6528;48.086;16.282;2022-07-10T03:02:38;2.43;;;2.23;;
12921;SDS011;6528;48.086;16.282;2022-07-10T03:05:05;1.90;;;1.80;;
12921;SDS011;6528;48.086;16.282;2022-07-10T03:07:32;2.30;;;2.20;;
12921;SDS011;6528;48.086;16.282;2022-07-10T03:09:59;3.90;;;2.07;;
12921;SDS011;6528;48.086;16.282;2022-07-10T03:12:26;2.60;;;2.27;;
12921;SDS011;6528;48.086;16.282;2022-07-10T03:14:53;2.70;;;2.50;;
12921;SDS011;6528;48.086;16.282;2022-07-10T03:17:20;2.57;;;2.37;;
12921;SDS011;6528;48.086;16.282;2022-07-10T03:19:46;2.13;;;1.93;;
12921;SDS011;6528;48.086;16.282;2022-07-10T03:22:13;2.30;;;2.20;;
12921;SDS011;6528;48.086;16.282;2022-07-10T03:24:40;2.30;;;2.20;;
12921;SDS011;6528;48.086;16.282;2022-07-10T03:27:09;3.93;;;2.30;;
12921;SDS011;6528;48.086;16.282;2022-07-10T03:29:36;2.57;;;2.37;;
12921;SDS011;6528;48.086;16.282;2022-07-10T03:32:03;2.17;;;2.07;;
12921;SDS011;6528;48.086;16.282;2022-07-10T03:34:30;1.90;;;1.80;;
12921;SDS011;6528;48.086;16.282;2022-07-10T03:36:59;2.13;;;2.03;;
12921;SDS011;6528;48.086;16.282;2022-07-10T03:39:26;2.73;;;2.43;;
12921;SDS011;6528;48.086;16.282;2022-07-10T03:41:53;2.33;;;2.20;;
12921;SDS011;6528;48.086;16.282;2022-07-10T03:44:20;1.93;;;1.83;;
12921;SDS011;6528;48.086;16.282;2022-07-10T03:46:47;3.20;;;2.00;;
12921;SDS011;6528;48.086;16.282;2022-07-10T03:49:14;2.73;;;2.53;;
12921;SDS011;6528;48.086;16.282;2022-07-10T03:51:41;3.83;;;2.10;;
12921;SDS011;6528;48.086;16.282;2022-07-10T03:54:08;3.50;;;2.43;;
12921;SDS011;6528;48.086;16.282;2022-07-10T03:56:34;2.20;;;2.10;;
12921;SDS011;6528;48.086;16.282;2022-07-10T03:59:20;2.53;;;2.33;;
12921;SDS011;6528;48.086;16.282;2022-07-10T04:01:47;2.23;;;2.07;;
12921;SDS011;6528;48.086;16.282;2022-07-10T04:04:14;2.30;;;2.10;;
12921;SDS011;6528;48.086;16.282;2022-07-10T04:06:40;2.33;;;2.13;;
12921;SDS011;6528;48.086;16.282;2022-07-10T04:09:07;2.23;;;2.07;;
12921;SDS011;6528;48.086;16.282;2022-07-10T04:11:34;3.50;;;2.73;;
12921;SDS011;6528;48.086;16.282;2022-07-10T04:14:01;3.50;;;2.60;;
12921;SDS011;6528;48.086;16.282;2022-07-10T04:16:28;3.00;;;2.40;;
12921;SDS011;6528;48.086;16.282;2022-07-10T04:18:55;2.33;;;2.17;;
12921;SDS011;6528;48.086;16.282;2022-07-10T04:21:21;12.77;;;2.10;;
12921;SDS011;6528;48.086;16.282;2022-07-10T04:23:48;3.20;;;2.43;;
12921;SDS011;6528;48.086;16.282;2022-07-10T04:26:15;3.93;;;2.17;;
12921;SDS011;6528;48.086;16.282;2022-07-10T04:28:42;2.50;;;2.30;;
12921;SDS011;6528;48.086;16.282;2022-07-10T04:31:09;2.33;;;2.23;;
12921;SDS011;6528;48.086;16.282;2022-07-10T04:33:35;2.77;;;2.13;;
12921;SDS011;6528;48.086;16.282;2022-07-10T04:36:02;2.47;;;2.23;;
12921;SDS011;6528;48.086;16.282;2022-07-10T04:38:29;2.20;;;2.10;;
12921;SDS011;6528;48.086;16.282;2022-07-10T04:40:58;2.27;;;2.07;;
12921;SDS011;6528;48.086;16.282;2022-07-10T04:43:25;2.43;;;2.10;;
12921;SDS011;6528;48.086;16.282;2022-07-10T04:45:53;2.37;;;2.17;;
12921;SDS011;6528;48.086;16.282;2022-07-10T04:48:19;2.43;;;2.30;;
12921;SDS011;6528;48.086;16.282;2022-07-10T04:50:46;2.70;;;2.60;;
12921;SDS011;6528;48.086;16.282;2022-07-10T04:53:13;2.40;;;2.30;;
12921;SDS011;6528;48.086;16.282;2022-07-10T04:55:40;3.13;;;2.40;;
12921;SDS011;6528;48.086;16.282;2022-07-10T04:58:07;3.07;;;2.27;;
12921;SDS011;6528;48.086;16.282;2022-07-10T05:00:33;2.20;;;2.10;;
12921;SDS011;6528;48.086;16.282;2022-07-10T05:03:00;2.33;;;2.13;;
12921;SDS011;6528;48.086;16.282;2022-07-10T05:05:27;6.90;;;2.07;;
12921;SDS011;6528;48.086;16.282;2022-07-10T05:07:54;2.40;;;2.30;;
12921;SDS011;6528;48.086;16.282;2022-07-10T05:10:21;2.10;;;1.90;;
12921;SDS011;6528;48.086;16.282;2022-07-10T05:12:48;1.87;;;1.70;;
12921;SDS011;6528;48.086;16.282;2022-07-10T05:15:14;2.43;;;2.27;;
12921;SDS011;6528;48.086;16.282;2022-07-10T05:17:41;1.83;;;1.73;;
12921;SDS011;6528;48.086;16.282;2022-07-10T05:20:08;2.27;;;2.17;;
12921;SDS011;6528;48.086;16.282;2022-07-10T05:22:36;3.70;;;2.47;;
12921;SDS011;6528;48.086;16.282;2022-07-10T05:25:03;2.00;;;1.90;;
12921;SDS011;6528;48.086;16.282;2022-07-10T05:27:30;2.67;;;2.57;;
12921;SDS011;6528;48.086;16.282;2022-07-10T05:29:56;2.53;;;2.30;;
12921;SDS011;6528;48.086;16.282;2022-07-10T05:32:23;2.47;;;2.30;;
12921;SDS011;6528;48.086;16.282;2022-07-10T05:34:51;2.60;;;2.40;;
12921;SDS011;6528;48.086;16.282;2022-07-10T05:37:18;2.33;;;2.17;;
12921;SDS011;6528;48.086;16.282;2022-07-10T05:39:45;2.33;;;2.13;;
12921;SDS011;6528;48.086;16.282;2022-07-10T05:42:11;4.23;;;2.50;;
12921;SDS011;6528;48.086;16.282;2022-07-10T05:44:38;2.83;;;2.63;;
12921;SDS011;6528;48.086;16.282;2022-07-10T05:47:05;2.60;;;2.40;;
12921;SDS011;6528;48.086;16.282;2022-07-10T05:49:33;1.90;;;1.80;;
12921;SDS011;6528;48.086;16.282;2022-07-10T05:52:00;2.80;;;2.60;;
12921;SDS011;6528;48.086;16.282;2022-07-10T05:54:26;1.80;;;1.70;;
12921;SDS011;6528;48.086;16.282;2022-07-10T05:56:53;2.00;;;1.90;;
12921;SDS011;6528;48.086;16.282;2022-07-10T05:59:20;3.37;;;2.20;;
12921;SDS011;6528;48.086;16.282;2022-07-10T06:01:47;2.00;;;1.90;;
12921;SDS011;6528;48.086;16.282;2022-07-10T06:04:14;2.90;;;2.20;;
12921;SDS011;6528;48.086;16.282;2022-07-10T06:06:41;3.97;;;2.30;;
12921;SDS011;6528;48.086;16.282;2022-07-10T06:09:07;5.47;;;2.50;;
12921;SDS011;6528;48.086;16.282;2022-07-10T06:11:34;2.87;;;2.27;;
12921;SDS011;6528;48.086;16.282;2022-07-10T06:14:01;2.30;;;2.10;;
12921;SDS011;6528;48.086;16.282;2022-07-10T06:16:28;2.53;;;2.33;;
12921;SDS011;6528;48.086;16.282;2022-07-10T06:18:55;2.50;;;2.10;;
12921;SDS011;6528;48.086;16.282;2022-07-10T06:21:21;2.40;;;2.30;;
12921;SDS011;6528;48.086;16.282;2022-07-10T06:23:49;2.90;;;2.70;;
12921;SDS011;6528;48.086;16.282;2022-07-10T06:26:16;4.17;;;2.53;;
12921;SDS011;6528;48.086;16.282;2022-07-10T06:28:43;3.00;;;2.80;;
12921;SDS011;6528;48.086;16.282;2022-07-10T06:31:10;3.53;;;2.23;;
12921;SDS011;6528;48.086;16.282;2022-07-10T06:33:38;3.20;;;2.67;;
12921;SDS011;6528;48.086;16.282;2022-07-10T06:36:05;4.97;;;2.80;;
12921;SDS011;6528;48.086;16.282;2022-07-10T06:38:32;2.83;;;2.63;;
12921;SDS011;6528;48.086;16.282;2022-07-10T06:40:59;3.37;;;2.37;;
12921;SDS011;6528;48.086;16.282;2022-07-10T06:43:26;2.73;;;2.10;;
12921;SDS011;6528;48.086;16.282;2022-07-10T06:45:53;2.87;;;2.67;;
12921;SDS011;6528;48.086;16.282;2022-07-10T06:48:20;4.80;;;2.60;;
12921;SDS011;6528;48.086;16.282;2022-07-10T06:50:48;5.43;;;2.60;;
12921;SDS011;6528;48.086;16.282;2022-07-10T06:53:15;2.37;;;2.27;;
12921;SDS011;6528;48.086;16.282;2022-07-10T06:55:42;3.07;;;2.77;;
12921;SDS011;6528;48.086;16.282;2022-07-10T06:58:09;3.20;;;3.00;;
12921;SDS011;6528;48.086;16.282;2022-07-10T07:00:36;2.00;;;1.90;;
12921;SDS011;6528;48.086;16.282;2022-07-10T07:03:03;5.37;;;2.60;;
12921;SDS011;6528;48.086;16.282;2022-07-10T07:05:30;2.37;;;2.27;;
12921;SDS011;6528;48.086;16.282;2022-07-10T07:07:57;4.13;;;2.47;;
12921;SDS011;6528;48.086;16.282;2022-07-10T07:10:23;3.43;;;2.50;;
12921;SDS011;6528;48.086;16.282;2022-07-10T07:12:50;3.60;;;2.40;;
12921;SDS011;6528;48.086;16.282;2022-07-10T07:15:17;2.40;;;2.20;;
12921;SDS011;6528;48.086;16.282;2022-07-10T07:17:46;2.33;;;2.20;;
12921;SDS011;6528;48.086;16.282;2022-07-10T07:20:31;2.57;;;2.37;;
12921;SDS011;6528;48.086;16.282;2022-07-10T07:23:16;2.60;;;2.40;;
12921;SDS011;6528;48.086;16.282;2022-07-10T07:25:43;2.80;;;2.60;;
12921;SDS011;6528;48.086;16.282;2022-07-10T07:28:16;2.50;;;2.30;;
12921;SDS011;6528;48.086;16.282;2022-07-10T07:30:47;2.40;;;2.30;;
12921;SDS011;6528;48.086;16.282;2022-07-10T07:33:14;2.80;;;2.17;;
12921;SDS011;6528;48.086;16.282;2022-07-10T07:35:41;3.10;;;2.40;;
12921;SDS011;6528;48.086;16.282;2022-07-10T07:38:09;2.97;;;2.60;;
12921;SDS011;6528;48.086;16.282;2022-07-10T07:40:36;2.63;;;2.40;;
12921;SDS011;6528;48.086;16.282;2022-07-10T07:43:03;2.13;;;2.03;;
12921;SDS011;6528;48.086;16.282;2022-07-10T07:45:30;2.67;;;2.30;;
12921;SDS011;6528;48.086;16.282;2022-07-10T07:47:58;3.03;;;2.80;;
12921;SDS011;6528;48.086;16.282;2022-07-10T07:50:26;3.30;;;3.00;;
12921;SDS011;6528;48.086;16.282;2022-07-10T07:52:55;2.70;;;2.50;;
12921;SDS011;6528;48.086;16.282;2022-07-10T07:55:22;2.63;;;2.50;;
12921;SDS011;6528;48.086;16.282;2022-07-10T07:57:53;4.20;;;3.27;;
12921;SDS011;6528;48.086;16.282;2022-07-10T08:00:22;4.40;;;3.27;;
12921;SDS011;6528;48.086;16.282;2022-07-10T08:02:51;2.80;;;2.70;;
12921;SDS011;6528;48.086;16.282;2022-07-10T08:05:19;4.80;;;3.73;;
12921;SDS011;6528;48.086;16.282;2022-07-10T08:07:48;4.00;;;3.63;;
12921;SDS011;6528;48.086;16.282;2022-07-10T08:10:19;5.97;;;4.70;;
12921;SDS011;6528;48.086;16.282;2022-07-10T08:12:47;3.80;;;3.50;;
12921;SDS011;6528;48.086;16.282;2022-07-10T08:15:15;4.57;;;3.50;;
12921;SDS011;6528;48.086;16.282;2022-07-10T08:17:49;4.70;;;3.80;;
12921;SDS011;6528;48.086;16.282;2022-07-10T08:20:17;3.90;;;3.53;;
12921;SDS011;6528;48.086;16.282;2022-07-10T08:22:44;6.73;;;3.53;;
12921;SDS011;6528;48.086;16.282;2022-07-10T08:25:11;6.03;;;3.20;;
12921;SDS011;6528;48.086;16.282;2022-07-10T08:27:38;3.40;;;3.10;;
12921;SDS011;6528;48.086;16.282;2022-07-10T08:30:06;4.33;;;3.67;;
12921;SDS011;6528;48.086;16.282;2022-07-10T08:32:35;3.47;;;3.17;;
12921;SDS011;6528;48.086;16.282;2022-07-10T08:35:03;3.83;;;2.83;;
12921;SDS011;6528;48.086;16.282;2022-07-10T08:37:36;3.10;;;2.87;;
12921;SDS011;6528;48.086;16.282;2022-07-10T08:40:08;3.43;;;3.13;;
12921;SDS011;6528;48.086;16.282;2022-07-10T08:42:36;3.63;;;3.30;;
12921;SDS011;6528;48.086;16.282;2022-07-10T08:45:03;3.30;;;3.03;;
12921;SDS011;6528;48.086;16.282;2022-07-10T08:47:30;6.03;;;3.40;;
12921;SDS011;6528;48.086;16.282;2022-07-10T08:50:05;3.27;;;2.97;;
12921;SDS011;6528;48.086;16.282;2022-07-10T08:52:43;2.70;;;2.50;;
12921;SDS011;6528;48.086;16.282;2022-07-10T08:55:20;2.90;;;2.57;;
12921;SDS011;6528;48.086;16.282;2022-07-10T08:57:50;2.90;;;2.30;;
12921;SDS011;6528;48.086;16.282;2022-07-10T09:00:18;2.40;;;2.20;;
12921;SDS011;6528;48.086;16.282;2022-07-10T09:02:45;3.90;;;1.50;;
12921;SDS011;6528;48.086;16.282;2022-07-10T09:05:11;2.53;;;1.90;;
12921;SDS011;6528;48.086;16.282;2022-07-10T09:07:38;1.70;;;1.60;;
12921;SDS011;6528;48.086;16.282;2022-07-10T09:10:08;2.27;;;2.07;;
12921;SDS011;6528;48.086;16.282;2022-07-10T09:13:10;2.43;;;2.23;;
12921;SDS011;6528;48.086;16.282;2022-07-10T09:15:30;2.40;;;2.20;;
12921;SDS011;6528;48.086;16.282;2022-07-10T09:18:01;1.90;;;1.80;;
12921;SDS011;6528;48.086;16.282;2022-07-10T09:20:35;1.90;;;1.80;;
12921;SDS011;6528;48.086;16.282;2022-07-10T09:23:16;3.03;;;1.70;;
12921;SDS011;6528;48.086;16.282;2022-07-10T09:25:45;2.73;;;1.90;;
12921;SDS011;6528;48.086;16.282;2022-07-10T09:28:15;2.20;;;1.83;;
12921;SDS011;6528;48.086;16.282;2022-07-10T09:30:44;3.83;;;1.87;;
12921;SDS011;6528;48.086;16.282;2022-07-10T09:36:08;3.70;;;1.40;;
12921;SDS011;6528;48.086;16.282;2022-07-10T09:43:48;1.67;;;0.80;;
12921;SDS011;6528;48.086;16.282;2022-07-10T09:46:18;0.77;;;0.77;;
12921;SDS011;6528;48.086;16.282;2022-07-10T09:49:00;1.10;;;1.10;;
12921;SDS011;6528;48.086;16.282;2022-07-10T09:51:32;0.75;;;0.70;;
12921;SDS011;6528;48.086;16.282;2022-07-10T09:54:14;1.48;;;1.10;;
12921;SDS011;6528;48.086;16.282;2022-07-10T09:56:43;1.63;;;0.60;;
12921;SDS011;6528;48.086;16.282;2022-07-10T09:59:14;1.20;;;1.10;;
12921;SDS011;6528;48.086;16.282;2022-07-10T10:01:46;0.87;;;0.80;;
12921;SDS011;6528;48.086;16.282;2022-07-10T10:04:14;1.80;;;0.83;;
12921;SDS011;6528;48.086;16.282;2022-07-10T10:06:42;1.97;;;1.20;;
12921;SDS011;6528;48.086;16.282;2022-07-10T10:09:20;1.17;;;1.17;;
12921;SDS011;6528;48.086;16.282;2022-07-10T10:11:52;1.77;;;1.20;;
12921;SDS011;6528;48.086;16.282;2022-07-10T10:14:29;3.90;;;1.20;;
12921;SDS011;6528;48.086;16.282;2022-07-10T10:16:57;1.87;;;1.60;;
12921;SDS011;6528;48.086;16.282;2022-07-10T10:19:26;1.60;;;1.50;;
12921;SDS011;6528;48.086;16.282;2022-07-10T10:22:17;2.90;;;1.50;;
12921;SDS011;6528;48.086;16.282;2022-07-10T10:24:45;2.10;;;1.30;;
12921;SDS011;6528;48.086;16.282;2022-07-10T10:27:13;1.60;;;1.50;;
12921;SDS011;6528;48.086;16.282;2022-07-10T10:29:41;1.57;;;1.47;;
12921;SDS011;6528;48.086;16.282;2022-07-10T10:32:09;1.63;;;1.50;;
12921;SDS011;6528;48.086;16.282;2022-07-10T10:34:43;2.67;;;1.47;;
12921;SDS011;6528;48.086;16.282;2022-07-10T10:40:08;1.73;;;1.60;;
12921;SDS011;6528;48.086;16.282;2022-07-10T10:50:51;2.77;;;2.03;;
12921;SDS011;6528;48.086;16.282;2022-07-10T10:53:21;3.17;;;1.77;;
12921;SDS011;6528;48.086;16.282;2022-07-10T10:58:38;3.80;;;1.80;;
12921;SDS011;6528;48.086;16.282;2022-07-10T11:06:45;2.13;;;1.77;;
12921;SDS011;6528;48.086;16.282;2022-07-10T11:09:29;1.93;;;1.57;;
12921;SDS011;6528;48.086;16.282;2022-07-10T11:14:24;3.20;;;1.77;;
12921;SDS011;6528;48.086;16.282;2022-07-10T11:16:54;1.67;;;1.57;;
12921;SDS011;6528;48.086;16.282;2022-07-10T11:19:23;2.03;;;1.80;;
12921;SDS011;6528;48.086;16.282;2022-07-10T11:21:56;3.93;;;1.63;;
12921;SDS011;6528;48.086;16.282;2022-07-10T11:28:01;2.30;;;1.53;;
12921;SDS011;6528;48.086;16.282;2022-07-10T11:33:18;2.20;;;1.60;;
12921;SDS011;6528;48.086;16.282;2022-07-10T11:35:48;2.23;;;1.70;;
12921;SDS011;6528;48.086;16.282;2022-07-10T11:38:20;1.63;;;1.53;;
12921;SDS011;6528;48.086;16.282;2022-07-10T11:40:52;2.10;;;1.73;;
12921;SDS011;6528;48.086;16.282;2022-07-10T11:43:20;1.57;;;1.47;;
12921;SDS011;6528;48.086;16.282;2022-07-10T11:45:51;2.47;;;1.80;;
12921;SDS011;6528;48.086;16.282;2022-07-10T11:48:20;2.10;;;1.60;;
12921;SDS011;6528;48.086;16.282;2022-07-10T11:50:47;2.00;;;1.80;;
12921;SDS011;6528;48.086;16.282;2022-07-10T11:53:25;1.70;;;1.47;;
12921;SDS011;6528;48.086;16.282;2022-07-10T11:55:52;1.37;;;1.27;;
12921;SDS011;6528;48.086;16.282;2022-07-10T11:58:20;1.60;;;1.50;;
12921;SDS011;6528;48.086;16.282;2022-07-10T12:01:02;1.67;;;1.47;;
12921;SDS011;6528;48.086;16.282;2022-07-10T12:03:34;2.60;;;1.50;;
12921;SDS011;6528;48.086;16.282;2022-07-10T12:06:05;2.00;;;1.50;;
12921;SDS011;6528;48.086;16.282;2022-07-10T12:08:45;3.23;;;1.53;;
12921;SDS011;6528;48.086;16.282;2022-07-10T12:11:16;2.10;;;1.53;;
12921;SDS011;6528;48.086;16.282;2022-07-10T12:13:45;2.80;;;1.40;;
12921;SDS011;6528;48.086;16.282;2022-07-10T12:16:14;1.83;;;1.47;;
12921;SDS011;6528;48.086;16.282;2022-07-10T12:18:41;3.03;;;1.60;;
12921;SDS011;6528;48.086;16.282;2022-07-10T12:21:10;1.73;;;1.63;;
12921;SDS011;6528;48.086;16.282;2022-07-10T12:23:38;4.47;;;1.60;;
12921;SDS011;6528;48.086;16.282;2022-07-10T12:26:08;1.30;;;1.20;;
12921;SDS011;6528;48.086;16.282;2022-07-10T12:28:49;2.30;;;2.10;;
12921;SDS011;6528;48.086;16.282;2022-07-10T12:31:23;2.57;;;1.70;;
12921;SDS011;6528;48.086;16.282;2022-07-10T12:34:01;2.67;;;1.23;;
12921;SDS011;6528;48.086;16.282;2022-07-10T12:39:14;1.37;;;1.27;;
12921;SDS011;6528;48.086;16.282;2022-07-10T12:44:36;2.50;;;1.53;;
12921;SDS011;6528;48.086;16.282;2022-07-10T12:47:14;2.80;;;1.30;;
12921;SDS011;6528;48.086;16.282;2022-07-10T12:52:34;1.90;;;1.13;;
12921;SDS011;6528;48.086;16.282;2022-07-10T12:55:15;1.43;;;1.07;;
12921;SDS011;6528;48.086;16.282;2022-07-10T12:57:48;2.20;;;1.10;;
12921;SDS011;6528;48.086;16.282;2022-07-10T13:00:23;1.20;;;1.10;;
12921;SDS011;6528;48.086;16.282;2022-07-10T13:03:00;2.40;;;1.10;;
12921;SDS011;6528;48.086;16.282;2022-07-10T13:05:28;1.10;;;0.97;;
12921;SDS011;6528;48.086;16.282;2022-07-10T13:10:43;1.50;;;1.00;;
12921;SDS011;6528;48.086;16.282;2022-07-10T13:13:11;1.40;;;1.30;;
12921;SDS011;6528;48.086;16.282;2022-07-10T13:15:38;1.20;;;1.10;;
12921;SDS011;6528;48.086;16.282;2022-07-10T13:18:16;1.73;;;1.30;;
12921;SDS011;6528;48.086;16.282;2022-07-10T13:20:44;2.07;;;1.23;;
12921;SDS011;6528;48.086;16.282;2022-07-10T13:23:12;3.27;;;1.00;;
12921;SDS011;6528;48.086;16.282;2022-07-10T13:25:39;2.03;;;1.30;;
12921;SDS011;6528;48.086;16.282;2022-07-10T13:28:07;2.20;;;1.17;;
12921;SDS011;6528;48.086;16.282;2022-07-10T13:30:35;16.63;;;8.27;;
12921;SDS011;6528;48.086;16.282;2022-07-10T13:33:02;2.43;;;1.60;;
12921;SDS011;6528;48.086;16.282;2022-07-10T13:35:29;1.80;;;1.10;;
12921;SDS011;6528;48.086;16.282;2022-07-10T13:37:57;2.20;;;1.07;;
12921;SDS011;6528;48.086;16.282;2022-07-10T13:40:29;1.57;;;1.20;;
12921;SDS011;6528;48.086;16.282;2022-07-10T13:42:58;2.10;;;1.13;;
12921;SDS011;6528;48.086;16.282;2022-07-10T13:45:25;2.17;;;1.07;;
12921;SDS011;6528;48.086;16.282;2022-07-10T13:47:59;2.43;;;1.10;;
12921;SDS011;6528;48.086;16.282;2022-07-10T13:50:26;0.97;;;0.97;;
12921;SDS011;6528;48.086;16.282;2022-07-10T13:52:53;2.43;;;1.07;;
12921;SDS011;6528;48.086;16.282;2022-07-10T13:55:19;1.40;;;1.17;;
12921;SDS011;6528;48.086;16.282;2022-07-10T13:57:46;2.73;;;1.37;;
12921;SDS011;6528;48.086;16.282;2022-07-10T14:00:13;2.33;;;1.00;;
12921;SDS011;6528;48.086;16.282;2022-07-10T14:02:40;1.80;;;1.07;;
12921;SDS011;6528;48.086;16.282;2022-07-10T14:05:07;4.13;;;1.00;;
12921;SDS011;6528;48.086;16.282;2022-07-10T14:07:34;3.50;;;1.47;;
12921;SDS011;6528;48.086;16.282;2022-07-10T14:10:01;2.10;;;1.10;;
12921;SDS011;6528;48.086;16.282;2022-07-10T14:12:29;2.10;;;1.10;;
12921;SDS011;6528;48.086;16.282;2022-07-10T14:14:56;1.83;;;1.00;;
12921;SDS011;6528;48.086;16.282;2022-07-10T14:17:23;2.27;;;0.97;;
12921;SDS011;6528;48.086;16.282;2022-07-10T14:19:50;1.30;;;0.80;;
12921;SDS011;6528;48.086;16.282;2022-07-10T14:22:17;2.83;;;0.87;;
12921;SDS011;6528;48.086;16.282;2022-07-10T14:24:44;2.60;;;0.97;;
12921;SDS011;6528;48.086;16.282;2022-07-10T14:27:11;1.63;;;1.00;;
12921;SDS011;6528;48.086;16.282;2022-07-10T14:29:38;1.17;;;0.80;;
12921;SDS011;6528;48.086;16.282;2022-07-10T14:32:04;3.10;;;1.10;;
12921;SDS011;6528;48.086;16.282;2022-07-10T14:34:31;2.20;;;1.00;;
12921;SDS011;6528;48.086;16.282;2022-07-10T14:36:59;2.10;;;1.17;;
12921;SDS011;6528;48.086;16.282;2022-07-10T14:39:26;1.27;;;0.87;;
12921;SDS011;6528;48.086;16.282;2022-07-10T14:41:53;0.80;;;0.80;;
12921;SDS011;6528;48.086;16.282;2022-07-10T14:44:20;4.83;;;1.00;;
12921;SDS011;6528;48.086;16.282;2022-07-10T14:46:47;1.60;;;1.03;;
12921;SDS011;6528;48.086;16.282;2022-07-10T14:49:14;0.97;;;0.90;;
12921;SDS011;6528;48.086;16.282;2022-07-10T14:51:42;2.17;;;0.70;;
12921;SDS011;6528;48.086;16.282;2022-07-10T14:54:09;1.97;;;1.40;;
12921;SDS011;6528;48.086;16.282;2022-07-10T14:56:36;1.67;;;0.90;;
12921;SDS011;6528;48.086;16.282;2022-07-10T14:59:04;0.97;;;0.70;;
12921;SDS011;6528;48.086;16.282;2022-07-10T15:01:40;1.40;;;0.93;;
12921;SDS011;6528;48.086;16.282;2022-07-10T15:04:07;1.00;;;0.90;;
12921;SDS011;6528;48.086;16.282;2022-07-10T15:06:34;1.50;;;0.70;;
12921;SDS011;6528;48.086;16.282;2022-07-10T15:09:00;1.50;;;1.27;;
12921;SDS011;6528;48.086;16.282;2022-07-10T15:11:27;1.27;;;1.17;;
12921;SDS011;6528;48.086;16.282;2022-07-10T15:13:54;1.07;;;0.80;;
12921;SDS011;6528;48.086;16.282;2022-07-10T15:16:27;2.00;;;0.90;;
12921;SDS011;6528;48.086;16.282;2022-07-10T15:18:55;0.80;;;0.60;;
12921;SDS011;6528;48.086;16.282;2022-07-10T15:21:22;4.40;;;0.90;;
12921;SDS011;6528;48.086;16.282;2022-07-10T15:23:49;0.70;;;0.70;;
12921;SDS011;6528;48.086;16.282;2022-07-10T15:26:16;1.00;;;0.90;;
12921;SDS011;6528;48.086;16.282;2022-07-10T15:28:44;2.77;;;1.03;;
12921;SDS011;6528;48.086;16.282;2022-07-10T15:31:10;0.80;;;0.80;;
12921;SDS011;6528;48.086;16.282;2022-07-10T15:33:38;1.87;;;0.90;;
12921;SDS011;6528;48.086;16.282;2022-07-10T15:36:10;0.90;;;0.90;;
12921;SDS011;6528;48.086;16.282;2022-07-10T15:38:38;0.60;;;0.60;;
12921;SDS011;6528;48.086;16.282;2022-07-10T15:41:06;0.70;;;0.60;;
12921;SDS011;6528;48.086;16.282;2022-07-10T15:43:33;7.23;;;0.90;;